createdAt,value
2022-12-17T00:04:02.660Z,56.3
2022-12-17T00:09:02.228Z,56.3
2022-12-17T00:14:02.494Z,56.2
2022-12-17T00:19:02.736Z,56.2
2022-12-17T00:24:02.872Z,56.2
2022-12-17T00:29:02.939Z,56.3
2022-12-17T00:34:03.312Z,56.3
2022-12-17T00:39:03.501Z,56.4
2022-12-17T00:44:03.723Z,56.3
2022-12-17T00:49:04.072Z,56.3
2022-12-17T00:54:04.517Z,56.3
2022-12-17T00:59:04.763Z,56.4
2022-12-17T01:04:05.065Z,56.4
2022-12-17T01:09:05.183Z,56.5
2022-12-17T01:14:05.272Z,56.4
2022-12-17T01:19:05.878Z,56.4
2022-12-17T01:24:05.960Z,56.2
2022-12-17T01:29:06.208Z,56.3
2022-12-17T01:34:06.537Z,56.4
2022-12-17T01:39:06.979Z,56.4
2022-12-17T01:44:07.132Z,56.4
2022-12-17T01:49:07.521Z,56.4
2022-12-17T01:54:07.567Z,56.3
2022-12-17T01:59:07.780Z,56.3
2022-12-17T02:04:08.147Z,56.5
2022-12-17T02:09:11.323Z,56.4
2022-12-17T02:14:11.107Z,56.4
2022-12-17T02:19:14.265Z,56.5
2022-12-17T02:24:14.868Z,56.5
2022-12-17T02:29:14.873Z,56.5
2022-12-17T02:34:15.127Z,56.4
2022-12-17T02:39:15.440Z,56.5
2022-12-17T02:44:15.647Z,56.5
2022-12-17T02:49:15.641Z,56.4
2022-12-17T02:54:18.699Z,56.5
2022-12-17T02:59:21.002Z,56.4
2022-12-17T03:04:23.416Z,56.5
2022-12-17T03:09:25.819Z,56.6
2022-12-17T03:14:25.504Z,56.5
2022-12-17T03:19:25.668Z,56.4
2022-12-17T03:24:25.922Z,56.4
2022-12-17T03:29:26.151Z,56.4
2022-12-17T03:34:26.223Z,56.5
2022-12-17T03:39:26.156Z,56.4
2022-12-17T03:44:26.257Z,56.4
2022-12-17T03:49:26.255Z,56.5
2022-12-17T03:54:26.242Z,56.5
2022-12-17T03:59:26.592Z,56.5
2022-12-17T04:04:26.610Z,56.5
2022-12-17T04:09:26.818Z,56.4
2022-12-17T04:14:26.911Z,56.4
2022-12-17T04:19:26.808Z,56.4
2022-12-17T04:24:29.712Z,56.4
2022-12-17T04:29:29.479Z,56.5
2022-12-17T04:34:29.847Z,56.4
2022-12-17T04:39:29.949Z,56.4
2022-12-17T04:44:30.239Z,56.3
2022-12-17T04:49:30.345Z,56.3
2022-12-17T04:54:30.560Z,56.5
2022-12-17T04:59:30.836Z,56.3
2022-12-17T05:04:33.681Z,56.4
2022-12-17T05:09:33.346Z,56.4
2022-12-17T05:14:33.685Z,56.4
2022-12-17T05:19:33.489Z,56.3
2022-12-17T05:24:33.603Z,56.3
2022-12-17T05:29:33.773Z,56.4
2022-12-17T05:34:33.992Z,56.6
2022-12-17T05:39:33.996Z,56.6
2022-12-17T05:44:34.323Z,56.6
2022-12-17T05:49:37.224Z,56.5
2022-12-17T05:54:36.909Z,56.6
2022-12-17T05:59:37.108Z,56.6
2022-12-17T06:04:37.090Z,56.5
2022-12-17T06:09:37.408Z,56.5
2022-12-17T06:14:37.467Z,56.4
2022-12-17T06:19:37.756Z,56.2
2022-12-17T06:24:41.367Z,56
2022-12-17T06:29:38.393Z,55.6
2022-12-17T06:34:38.591Z,55.4
2022-12-17T06:39:38.729Z,55.1
2022-12-17T06:44:39.047Z,54.8
2022-12-17T06:49:39.280Z,54.6
2022-12-17T06:54:39.039Z,54.5
2022-12-17T06:59:39.017Z,54.4
2022-12-17T07:04:39.105Z,54.1
2022-12-17T07:09:42.092Z,54
2022-12-17T07:14:41.930Z,53.5
2022-12-17T07:19:42.235Z,53.6
2022-12-17T07:24:42.153Z,53.5
2022-12-17T07:29:42.233Z,53.6
2022-12-17T07:34:42.219Z,54
2022-12-17T07:39:42.271Z,53.8
2022-12-17T07:44:45.168Z,54
2022-12-17T07:49:44.726Z,53.8
2022-12-17T07:54:44.759Z,54.1
2022-12-17T07:59:44.708Z,54.2
2022-12-17T08:04:45.034Z,54.5
2022-12-17T08:09:44.832Z,54.7
2022-12-17T08:14:44.709Z,54.6
2022-12-17T08:19:44.744Z,54.7
2022-12-17T08:24:47.574Z,54.7
2022-12-17T08:29:49.941Z,54.8
2022-12-17T08:34:49.699Z,54.7
2022-12-17T08:39:49.951Z,54.9
2022-12-17T08:44:50.236Z,54.9
2022-12-17T08:49:50.242Z,54.8
2022-12-17T08:54:50.289Z,54.8
2022-12-17T08:59:50.521Z,54.7
2022-12-17T09:04:50.583Z,54.6
2022-12-17T09:09:53.489Z,54.8
2022-12-17T09:14:53.348Z,54.9
2022-12-17T09:19:53.366Z,54.8
2022-12-17T09:24:53.422Z,54.8
2022-12-17T09:29:56.457Z,54.8
2022-12-17T09:34:54.945Z,54.7
2022-12-17T09:39:56.414Z,54.7
2022-12-17T09:44:55.535Z,54.7
2022-12-17T09:49:55.641Z,54.7
2022-12-17T09:55:00.920Z,54.7
2022-12-17T09:59:56.119Z,54.8
2022-12-17T10:04:56.402Z,55
2022-12-17T10:09:56.562Z,54.9
2022-12-17T10:14:56.789Z,55
2022-12-17T10:19:56.958Z,54.9
2022-12-17T10:24:57.310Z,54.8
2022-12-17T10:29:57.572Z,54.8
2022-12-17T10:35:05.129Z,54.9
2022-12-17T10:40:00.493Z,55
2022-12-17T10:45:02.377Z,55.1
2022-12-17T10:50:02.066Z,55.2
2022-12-17T10:55:02.359Z,55.3
2022-12-17T11:00:05.319Z,54.9
2022-12-17T11:05:05.673Z,54.2
2022-12-17T11:10:09.368Z,53.8
2022-12-17T11:15:06.529Z,53.3
2022-12-17T11:20:06.681Z,52.5
2022-12-17T11:25:06.958Z,52.8
2022-12-17T11:30:09.804Z,52.7
2022-12-17T11:35:09.489Z,52.5
2022-12-17T11:40:09.860Z,52.4
2022-12-17T11:45:10.266Z,52.2
2022-12-17T11:50:13.430Z,52.1
2022-12-17T11:55:12.837Z,52.1
2022-12-17T12:00:13.174Z,52.1
2022-12-17T12:05:13.697Z,52
2022-12-17T12:10:13.677Z,52
2022-12-17T12:15:13.776Z,52.1
2022-12-17T12:20:14.207Z,51.8
2022-12-17T12:25:14.525Z,51.9
2022-12-17T12:30:14.741Z,51.7
2022-12-17T12:35:15.036Z,51.8
2022-12-17T12:40:14.609Z,51.7
2022-12-17T12:45:14.923Z,51.5
2022-12-17T12:50:14.969Z,51.5
2022-12-17T12:55:14.909Z,51.5
2022-12-17T13:00:15.012Z,51.4
2022-12-17T13:05:15.260Z,51.6
2022-12-17T13:10:15.521Z,51.6
2022-12-17T13:15:15.549Z,51.5
2022-12-17T13:20:15.679Z,51.4
2022-12-17T13:25:15.670Z,51.6
2022-12-17T13:30:15.574Z,51.6
2022-12-17T13:35:15.859Z,51.3
2022-12-17T13:40:18.738Z,51.3
2022-12-17T13:45:18.503Z,51.2
2022-12-17T13:50:35.778Z,51.3
2022-12-17T13:55:21.671Z,51.3
2022-12-17T14:00:21.397Z,51.3
2022-12-17T14:05:21.756Z,51.3
2022-12-17T14:10:22.978Z,51.3
2022-12-17T14:15:22.690Z,51.2
2022-12-17T14:20:23.064Z,51.3
2022-12-17T14:25:23.090Z,51.3
2022-12-17T14:30:23.268Z,51.3
2022-12-17T14:35:23.553Z,51.4
2022-12-17T14:40:23.770Z,51.3
2022-12-17T14:45:26.625Z,51.3
2022-12-17T14:50:29.051Z,51.4
2022-12-17T14:55:28.680Z,51.4
2022-12-17T15:00:31.484Z,51.4
2022-12-17T15:05:31.165Z,51.4
2022-12-17T15:10:31.239Z,51.4
2022-12-17T15:15:31.520Z,51.5
2022-12-17T15:20:31.694Z,51.5
2022-12-17T15:25:37.599Z,51.5
2022-12-17T15:30:34.062Z,51.5
2022-12-17T15:35:34.242Z,51.6
2022-12-17T15:40:34.525Z,51.6
2022-12-17T15:45:34.745Z,51.7
2022-12-17T15:50:37.442Z,51.6
2022-12-17T15:55:37.209Z,51.7
2022-12-17T16:00:37.440Z,51.7
2022-12-17T16:05:37.673Z,51.7
2022-12-17T16:10:40.319Z,51.7
2022-12-17T16:15:40.401Z,51.8
2022-12-17T16:20:40.625Z,51.8
2022-12-17T16:25:41.060Z,51.7
2022-12-17T16:30:44.199Z,51.8
2022-12-17T16:35:46.989Z,51.9
2022-12-17T16:40:46.546Z,51.8
2022-12-17T16:45:46.663Z,51.8
2022-12-17T16:50:46.734Z,52
2022-12-17T16:55:46.985Z,51.9
2022-12-17T17:00:49.725Z,51.8
2022-12-17T17:05:51.901Z,51.9
2022-12-17T17:10:54.499Z,51.8
2022-12-17T17:15:56.913Z,51.9
2022-12-17T17:20:57.397Z,52
2022-12-17T17:25:58.684Z,51.9
2022-12-17T17:30:57.578Z,51.8
2022-12-17T17:36:02.406Z,52
2022-12-17T17:40:57.819Z,51.9
2022-12-17T17:45:58.122Z,51.9
2022-12-17T17:51:01.267Z,51.9
2022-12-17T17:56:03.655Z,52
2022-12-17T18:01:03.225Z,52.3
2022-12-17T18:06:03.708Z,53.3
2022-12-17T18:11:03.142Z,53.9
2022-12-17T18:16:04.636Z,54.3
2022-12-17T18:21:04.233Z,54.6
2022-12-17T18:26:07.112Z,54.9
2022-12-17T18:31:06.900Z,55.3
2022-12-17T18:36:06.799Z,55.4
2022-12-17T18:41:06.902Z,55.7
2022-12-17T18:46:09.779Z,55.8
2022-12-17T18:51:09.473Z,55.8
2022-12-17T18:56:09.447Z,56.2
2022-12-17T19:01:12.444Z,56.1
2022-12-17T19:06:12.289Z,56.3
2022-12-17T19:11:12.428Z,56.4
2022-12-17T19:16:12.581Z,56.4
2022-12-17T19:21:12.583Z,56.6
2022-12-17T19:26:15.505Z,56.7
2022-12-17T19:31:17.778Z,56.7
2022-12-17T19:36:17.390Z,56.6
2022-12-17T19:41:17.624Z,56.8
2022-12-17T19:46:17.772Z,56.8
2022-12-17T19:51:17.783Z,56.8
2022-12-17T19:56:18.247Z,56.9
2022-12-17T20:01:18.382Z,56.8
2022-12-17T20:06:18.402Z,56.9
2022-12-17T20:11:18.227Z,56.8
2022-12-17T20:16:18.312Z,56.9
2022-12-17T20:21:21.168Z,56.9
2022-12-17T20:26:19.624Z,56.9
2022-12-17T20:31:19.931Z,57
2022-12-17T20:36:20.303Z,57
2022-12-17T20:41:20.422Z,57.1
2022-12-17T20:46:20.783Z,57
2022-12-17T20:51:20.786Z,57.1
2022-12-17T20:56:21.035Z,57.2
2022-12-17T21:01:21.542Z,57.2
2022-12-17T21:06:21.391Z,57.2
2022-12-17T21:11:21.308Z,57.2
2022-12-17T21:16:21.761Z,57.2
2022-12-17T21:21:22.126Z,57.2
2022-12-17T21:26:22.169Z,57.2
2022-12-17T21:31:22.527Z,57.2
2022-12-17T21:36:25.369Z,57.2
2022-12-17T21:41:27.765Z,57.2
2022-12-17T21:46:28.550Z,57.2
2022-12-17T21:51:28.716Z,57.3
2022-12-17T21:56:28.799Z,57.2
2022-12-17T22:01:29.065Z,57
2022-12-17T22:06:33.364Z,57.1
2022-12-17T22:11:31.765Z,57
2022-12-17T22:16:32.117Z,56.9
2022-12-17T22:21:32.405Z,56.8
2022-12-17T22:26:32.607Z,57
2022-12-17T22:31:32.436Z,56.8
2022-12-17T22:37:30.066Z,56.9
2022-12-17T22:43:00.102Z,56.8
2022-12-17T22:46:36.464Z,56.9
2022-12-17T22:51:37.356Z,56.8
2022-12-17T22:56:54.584Z,56.8
2022-12-17T23:01:36.801Z,56.8
2022-12-17T23:06:36.780Z,56.7
2022-12-17T23:11:36.881Z,56.8
2022-12-17T23:16:37.314Z,56.7
2022-12-17T23:21:37.629Z,56.6
2022-12-17T23:26:37.697Z,56.6
2022-12-17T23:31:40.672Z,56.7
2022-12-17T23:36:40.511Z,56.7
2022-12-17T23:41:40.854Z,56.7
2022-12-17T23:46:41.030Z,56.6
2022-12-17T23:51:41.228Z,56.5
2022-12-17T23:56:41.434Z,56.3
